Time;durP1;ratioP1;P1;durP2;ratioP2;P2;SDS_P1;SDS_P2;PMS_P1;PMS_P2;Temp;Humidity;BMP_temperature;BMP_pressure;BME280_temperature;BME280_humidity;BME280_pressure;Samples;Min_cycle;Max_cycle;Signal;HPM_P1;HPM_P2
2022/01/12 00:00:19;;;;;;;;;;;16.20;56.50;;;;;;5011418;27;91112;-75
2022/01/12 00:02:45;;;;;;;68.63;53.97;;;16.20;56.20;;;;;;5007249;27;90058;-75
2022/01/12 00:05:11;;;;;;;67.07;53.63;;;16.10;56.10;;;;;;5018514;27;89490;-75
2022/01/12 00:07:37;;;;;;;68.70;53.45;;;16.10;56.00;;;;;;4998840;27;97929;-75
2022/01/12 00:10:03;;;;;;;66.90;53.85;;;16.10;56.40;;;;;;5007761;27;90249;-75
2022/01/12 00:12:28;;;;;;;67.13;53.30;;;16.10;56.20;;;;;;5004057;27;90478;-75
2022/01/12 00:14:54;;;;;;;67.25;53.45;;;16.00;56.00;;;;;;4999668;27;91404;-76
2022/01/12 00:17:20;;;;;;;67.18;53.45;;;16.00;56.10;;;;;;4994344;27;90295;-75
2022/01/12 00:19:46;;;;;;;69.00;54.17;;;16.00;56.20;;;;;;5003437;27;92476;-75
2022/01/12 00:22:13;;;;;;;69.32;54.30;;;15.90;56.20;;;;;;5007051;27;90855;-75
2022/01/12 00:33:14;;;;;;;66.13;52.60;;;15.80;56.60;;;;;;5005906;27;91091;-75
2022/01/12 00:35:48;;;;;;;69.45;54.25;;;15.80;56.50;;;;;;4999387;27;94506;-75
2022/01/12 00:38:15;;;;;;;66.28;53.55;;;15.80;56.70;;;;;;5006370;27;90096;-75
2022/01/12 00:40:45;;;;;;;66.07;53.80;;;15.80;56.70;;;;;;5003148;27;90993;-75
2022/01/12 00:43:11;;;;;;;67.63;53.40;;;15.70;56.50;;;;;;4999527;27;90375;-75
2022/01/12 00:45:41;;;;;;;67.88;53.13;;;15.70;56.50;;;;;;4998508;27;91203;-76
2022/01/12 00:48:07;;;;;;;68.40;54.22;;;15.70;56.80;;;;;;5001489;27;89854;-75
2022/01/12 00:50:33;;;;;;;67.45;53.80;;;15.70;57.00;;;;;;5006289;27;90587;-76
2022/01/12 00:52:59;;;;;;;70.95;55.60;;;15.70;56.60;;;;;;5001221;27;90939;-75
2022/01/12 00:55:24;;;;;;;68.90;53.67;;;15.70;57.30;;;;;;5002287;27;91069;-76
2022/01/12 00:57:51;;;;;;;66.85;53.40;;;15.80;57.00;;;;;;4979007;27;90881;-75
2022/01/12 01:00:18;;;;;;;70.45;54.95;;;15.90;57.70;;;;;;4992343;27;91408;-76
2022/01/12 01:02:44;;;;;;;71.47;55.17;;;16.00;57.20;;;;;;5002647;27;91295;-76
2022/01/12 01:05:09;;;;;;;68.10;54.15;;;16.20;57.00;;;;;;5011609;27;90664;-76
2022/01/12 01:07:50;;;;;;;66.00;52.45;;;16.40;56.50;;;;;;2812186;27;10088832;-76
2022/01/12 01:10:28;;;;;;;66.85;53.75;;;16.60;56.00;;;;;;2910241;27;10092959;-76
2022/01/12 01:12:54;;;;;;;71.30;55.15;;;16.70;56.10;;;;;;5017152;27;96628;-76
2022/01/12 01:15:38;;;;;;;67.70;53.80;;;16.90;55.20;;;;;;5001147;27;90613;-76
2022/01/12 01:26:16;;;;;;;69.10;54.35;;;17.20;54.70;;;;;;5015112;27;90013;-76
2022/01/12 01:28:42;;;;;;;66.38;53.13;;;17.20;54.30;;;;;;5005016;27;90322;-75
2022/01/12 01:31:08;;;;;;;68.20;54.25;;;17.30;53.80;;;;;;5003723;27;90690;-76
2022/01/12 01:33:33;;;;;;;68.07;53.60;;;17.30;53.90;;;;;;5000716;27;95035;-76
2022/01/12 01:35:59;;;;;;;66.90;53.47;;;17.40;53.80;;;;;;4991167;27;93268;-75
2022/01/12 01:38:24;;;;;;;69.43;55.10;;;17.40;53.80;;;;;;4992631;27;92829;-76
2022/01/12 01:40:50;;;;;;;68.18;53.45;;;17.40;54.20;;;;;;5012201;27;96362;-76
2022/01/12 01:43:24;;;;;;;67.00;53.30;;;17.40;53.90;;;;;;4976655;28;95297;-76
2022/01/12 01:54:04;;;;;;;64.57;52.03;;;17.60;53.60;;;;;;5004699;27;90493;-76
2022/01/12 01:56:30;;;;;;;65.75;53.15;;;17.60;53.20;;;;;;5008251;27;90877;-75
2022/01/12 01:58:56;;;;;;;65.38;52.40;;;17.60;53.20;;;;;;5007152;27;92202;-76
2022/01/12 02:01:22;;;;;;;69.63;54.08;;;17.60;53.20;;;;;;5011408;27;91117;-76
2022/01/12 02:03:48;;;;;;;64.70;51.90;;;17.60;53.10;;;;;;5007944;27;89826;-76
2022/01/12 02:06:16;;;;;;;66.53;52.38;;;17.70;53.00;;;;;;5009158;27;90661;-75
2022/01/12 02:08:42;;;;;;;69.43;54.40;;;17.60;53.40;;;;;;4984825;27;91905;-76
2022/01/12 02:11:08;;;;;;;63.92;52.15;;;17.70;52.90;;;;;;5001975;27;89802;-76
2022/01/12 02:13:34;;;;;;;64.97;52.05;;;17.60;53.00;;;;;;5008125;27;90209;-76
2022/01/12 02:15:59;;;;;;;67.90;53.70;;;17.60;52.60;;;;;;5004873;27;90139;-76
2022/01/12 02:40:47;;;;;;;68.00;53.97;;;17.10;53.80;;;;;;5005031;27;89833;-76
2022/01/12 02:43:37;;;;;;;65.35;52.75;;;17.00;53.60;;;;;;4999008;27;89747;-76
2022/01/12 02:53:37;;;;;;;65.45;53.08;;;16.80;54.00;;;;;;5001014;27;90370;-76
2022/01/12 02:54:19;;;;;;;66.05;52.67;;;16.70;54.10;;;;;;5007179;27;90799;-75
2022/01/12 02:56:45;;;;;;;65.53;52.40;;;16.70;54.00;;;;;;5005127;27;90828;-76
2022/01/12 02:59:10;;;;;;;65.85;52.45;;;16.60;54.20;;;;;;5012499;27;91180;-75
2022/01/12 03:04:20;;;;;;;66.65;53.60;;;16.50;54.30;;;;;;5002217;27;91915;-75
2022/01/12 03:06:46;;;;;;;65.93;53.38;;;16.50;54.50;;;;;;5002644;27;90249;-74
2022/01/12 03:09:13;;;;;;;65.78;52.88;;;16.50;54.40;;;;;;4991977;27;92095;-74
2022/01/12 03:11:39;;;;;;;66.20;52.67;;;16.50;54.40;;;;;;5010803;27;91009;-74
2022/01/12 03:14:05;;;;;;;65.68;52.65;;;16.40;54.30;;;;;;5002967;27;91547;-74
2022/01/12 03:16:31;;;;;;;65.30;52.97;;;16.40;54.70;;;;;;4993831;27;95550;-74
2022/01/12 03:18:59;;;;;;;65.00;52.75;;;16.30;54.70;;;;;;5001446;27;91978;-75
2022/01/12 03:21:29;;;;;;;68.22;53.92;;;16.30;54.90;;;;;;5000508;27;93324;-74
2022/01/12 03:23:55;;;;;;;65.45;52.67;;;16.30;55.10;;;;;;5008495;27;90549;-74
2022/01/12 03:26:21;;;;;;;65.90;52.38;;;16.30;54.90;;;;;;5005233;27;90258;-74
2022/01/12 03:28:54;;;;;;;65.60;52.78;;;16.20;54.90;;;;;;4996012;27;91374;-75
2022/01/12 03:31:23;;;;;;;68.30;53.42;;;16.20;55.00;;;;;;5008021;27;89649;-75
2022/01/12 03:33:56;;;;;;;71.25;53.85;;;16.10;55.10;;;;;;5007041;27;90324;-75
2022/01/12 03:38:48;;;;;;;67.75;53.30;;;16.00;55.10;;;;;;5011309;27;89610;-75
2022/01/12 03:41:14;;;;;;;65.68;52.47;;;16.00;55.30;;;;;;5013872;27;90149;-74
2022/01/12 03:43:40;;;;;;;66.93;52.55;;;16.00;55.40;;;;;;5014579;27;90997;-75
2022/01/12 03:46:06;;;;;;;64.95;52.45;;;15.90;55.30;;;;;;5003382;27;93409;-74
2022/01/12 03:48:32;;;;;;;67.82;53.58;;;15.90;55.30;;;;;;4982852;27;91954;-74
2022/01/12 03:50:57;;;;;;;66.43;53.08;;;15.90;55.80;;;;;;5001504;27;89630;-74
2022/01/12 03:53:24;;;;;;;67.35;53.05;;;15.90;56.10;;;;;;5010416;27;89875;-74
2022/01/12 03:55:50;;;;;;;66.45;53.50;;;16.00;56.20;;;;;;5009324;27;93223;-75
2022/01/12 03:58:16;;;;;;;69.05;54.55;;;16.10;55.90;;;;;;5012556;27;92516;-74
2022/01/12 04:00:41;;;;;;;67.97;53.60;;;16.20;55.50;;;;;;4979106;27;91944;-74
2022/01/12 04:03:08;;;;;;;66.53;53.10;;;16.20;55.50;;;;;;4979042;27;91134;-75
2022/01/12 04:08:20;;;;;;;66.63;52.88;;;16.30;55.60;;;;;;5002970;27;91954;-75
2022/01/12 04:11:00;;;;;;;66.57;53.35;;;16.50;54.90;;;;;;5002424;27;91939;-74
2022/01/12 04:13:31;;;;;;;69.40;53.88;;;16.50;54.80;;;;;;5010093;27;91634;-75
2022/01/12 04:16:05;;;;;;;68.05;54.22;;;16.60;55.10;;;;;;4980290;27;90255;-74
2022/01/12 04:18:30;;;;;;;66.72;53.22;;;16.80;54.90;;;;;;4987484;27;95597;-75
2022/01/12 04:20:58;;;;;;;68.20;53.80;;;16.90;54.40;;;;;;5009277;27;90026;-75
2022/01/12 04:23:24;;;;;;;66.90;53.28;;;17.00;54.30;;;;;;5013792;27;90683;-75
2022/01/12 04:25:52;;;;;;;64.38;52.28;;;17.10;54.10;;;;;;5008956;27;89990;-75
2022/01/12 04:28:20;;;;;;;64.85;52.33;;;17.20;53.80;;;;;;5007352;27;89883;-75
2022/01/12 04:30:47;;;;;;;66.18;52.38;;;17.20;53.60;;;;;;5001523;27;91537;-75
2022/01/12 04:33:13;;;;;;;70.40;54.83;;;17.30;53.50;;;;;;4985318;27;90823;-75
2022/01/12 04:35:50;;;;;;;66.50;52.10;;;17.30;53.30;;;;;;4994579;27;90068;-75
2022/01/12 04:38:17;;;;;;;64.57;51.80;;;17.30;53.30;;;;;;5010831;27;90873;-75
2022/01/12 04:40:44;;;;;;;64.22;51.80;;;17.40;53.10;;;;;;5003564;27;89984;-75
2022/01/12 04:43:10;;;;;;;64.68;52.33;;;17.40;53.00;;;;;;5005824;27;90561;-75
2022/01/12 04:45:57;;;;;;;66.15;53.63;;;17.40;53.00;;;;;;5001300;27;91848;-74
2022/01/12 04:50:53;;;;;;;64.60;52.40;;;17.40;52.90;;;;;;5002556;27;90024;-74
2022/01/12 04:53:19;;;;;;;67.07;52.97;;;17.40;52.80;;;;;;5008610;27;90957;-74
2022/01/12 04:55:47;;;;;;;64.72;51.97;;;17.40;52.80;;;;;;5004729;27;90573;-75
2022/01/12 04:58:14;;;;;;;64.82;52.42;;;17.40;52.80;;;;;;5001747;27;91176;-74
2022/01/12 05:00:41;;;;;;;66.75;53.40;;;17.30;52.90;;;;;;5014906;27;91185;-75
2022/01/12 05:06:39;;;;;;;68.00;53.40;;;17.30;53.00;;;;;;5010216;27;89897;-75
2022/01/12 05:13:55;;;;;;;68.53;53.40;;;17.20;53.10;;;;;;5006753;27;89715;-75
2022/01/12 05:16:22;;;;;;;68.45;53.38;;;17.10;53.30;;;;;;5001501;27;89990;-75
2022/01/12 05:18:49;;;;;;;66.82;53.55;;;17.10;53.20;;;;;;4984324;27;91706;-74
2022/01/12 05:21:17;;;;;;;65.88;52.65;;;17.00;53.50;;;;;;5003019;27;90016;-75
2022/01/12 05:23:43;;;;;;;65.20;51.88;;;17.00;53.60;;;;;;5008054;27;92271;-75
2022/01/12 05:26:09;;;;;;;65.68;52.70;;;17.10;53.70;;;;;;5004420;27;91652;-75
2022/01/12 05:28:38;;;;;;;65.05;51.58;;;17.20;53.70;;;;;;5007506;27;91161;-75
2022/01/12 05:31:04;;;;;;;65.78;52.38;;;17.30;53.60;;;;;;4976189;27;92405;-75
2022/01/12 05:33:30;;;;;;;65.13;52.05;;;17.40;53.50;;;;;;4990505;27;94983;-75
2022/01/12 05:35:57;;;;;;;65.40;51.92;;;17.60;53.50;;;;;;5006522;27;90400;-75
2022/01/12 05:38:24;;;;;;;65.47;52.40;;;17.70;53.20;;;;;;5010802;27;91325;-75
2022/01/12 05:40:56;;;;;;;64.38;52.10;;;17.90;53.00;;;;;;4984064;27;90125;-75
2022/01/12 05:43:28;;;;;;;64.82;52.35;;;18.00;52.70;;;;;;5010640;27;89188;-75
2022/01/12 05:45:55;;;;;;;67.40;52.83;;;18.10;52.60;;;;;;5005972;27;90178;-75
2022/01/12 05:50:49;;;;;;;64.50;51.35;;;18.40;52.20;;;;;;4997419;27;90026;-75
2022/01/12 05:53:17;;;;;;;64.80;52.00;;;18.40;51.80;;;;;;5006939;27;90971;-75
2022/01/12 05:55:43;;;;;;;66.88;52.20;;;18.50;51.90;;;;;;4989766;27;90239;-75
2022/01/12 05:58:09;;;;;;;65.43;52.42;;;18.60;51.80;;;;;;5008876;27;90044;-75
2022/01/12 06:00:35;;;;;;;64.85;52.08;;;18.60;51.40;;;;;;4987143;27;90972;-75
2022/01/12 06:03:01;;;;;;;66.85;52.65;;;18.70;51.20;;;;;;4997912;27;95775;-72
2022/01/12 06:05:28;;;;;;;67.43;52.40;;;18.70;51.40;;;;;;4991959;27;90756;-67
2022/01/12 06:07:54;;;;;;;66.20;52.22;;;18.70;51.40;;;;;;5000354;27;97135;-67
2022/01/12 06:10:22;;;;;;;66.13;52.33;;;18.70;51.20;;;;;;4983202;27;90759;-70
2022/01/12 06:12:48;;;;;;;66.18;52.88;;;18.70;51.30;;;;;;4991547;27;91474;-70
2022/01/12 06:15:14;;;;;;;65.97;52.92;;;18.70;51.40;;;;;;4979180;27;90637;-69
2022/01/12 06:17:40;;;;;;;65.88;52.47;;;18.60;51.30;;;;;;4995245;27;97452;-70
2022/01/12 06:20:08;;;;;;;68.03;53.30;;;18.60;51.50;;;;;;5001522;27;90809;-72
2022/01/12 06:22:35;;;;;;;67.38;53.15;;;18.60;51.60;;;;;;5001316;27;90604;-75
2022/01/12 06:25:02;;;;;;;66.07;52.45;;;18.60;51.50;;;;;;5006607;27;90277;-71
2022/01/12 06:27:29;;;;;;;68.70;53.65;;;18.60;51.80;;;;;;5007196;27;89908;-71
2022/01/12 06:32:22;;;;;;;69.22;53.97;;;18.60;52.60;;;;;;4993967;27;91714;-72
2022/01/12 06:34:49;;;;;;;70.00;52.60;;;18.60;51.80;;;;;;4980969;27;92115;-71
2022/01/12 06:37:15;;;;;;;71.20;54.33;;;18.60;51.60;;;;;;5003493;27;91666;-72
2022/01/12 06:39:40;;;;;;;71.93;53.20;;;18.50;51.80;;;;;;4994036;27;94584;-72
2022/01/12 06:42:06;;;;;;;71.25;53.85;;;18.50;51.60;;;;;;4996759;27;91974;-72
2022/01/12 06:44:32;;;;;;;70.38;53.75;;;18.50;51.90;;;;;;5005101;27;90683;-72
2022/01/12 06:47:02;;;;;;;72.45;53.65;;;18.50;51.90;;;;;;5012464;27;90313;-72
2022/01/12 06:49:28;;;;;;;71.57;54.55;;;18.40;51.80;;;;;;5000083;27;89878;-72
2022/01/12 06:51:54;;;;;;;70.78;54.00;;;18.30;52.30;;;;;;5005150;27;91411;-72
2022/01/12 06:54:20;;;;;;;71.45;54.45;;;18.30;52.20;;;;;;5011450;27;89172;-72
2022/01/12 06:56:45;;;;;;;71.07;53.95;;;18.30;52.30;;;;;;5012204;27;90895;-72
2022/01/12 06:59:11;;;;;;;71.80;54.25;;;18.20;52.10;;;;;;5011993;27;91851;-72
2022/01/12 07:01:38;;;;;;;70.85;55.10;;;18.20;52.20;;;;;;5002846;27;90537;-73
2022/01/12 07:04:04;;;;;;;73.30;54.63;;;18.20;52.30;;;;;;5006196;27;90846;-73
2022/01/12 07:06:29;;;;;;;71.85;54.63;;;18.10;52.40;;;;;;5005368;27;90352;-72
2022/01/12 07:08:55;;;;;;;71.85;54.40;;;18.10;52.40;;;;;;5004826;27;93848;-72
2022/01/12 07:11:21;;;;;;;70.82;53.60;;;18.00;52.40;;;;;;5002842;27;90228;-72
2022/01/12 07:13:47;;;;;;;70.30;54.85;;;18.00;52.70;;;;;;5009015;27;90929;-72
2022/01/12 07:16:13;;;;;;;68.85;54.03;;;18.00;52.60;;;;;;5003207;27;90987;-73
2022/01/12 07:18:39;;;;;;;70.05;53.28;;;17.90;52.50;;;;;;4979486;28;91148;-72
2022/01/12 07:21:05;;;;;;;73.15;54.47;;;18.00;52.50;;;;;;5000135;27;90835;-72
2022/01/12 07:23:31;;;;;;;72.28;54.70;;;17.90;52.70;;;;;;5008876;27;90344;-73
2022/01/12 07:25:56;;;;;;;72.20;54.10;;;17.90;52.80;;;;;;5008188;27;92262;-72
2022/01/12 07:28:22;;;;;;;69.82;53.85;;;17.90;52.90;;;;;;4996585;27;101012;-72
2022/01/12 07:30:49;;;;;;;69.50;54.08;;;18.00;52.80;;;;;;5014454;27;90447;-72
2022/01/12 07:33:15;;;;;;;69.40;53.38;;;18.10;52.60;;;;;;4994196;27;95672;-71
2022/01/12 07:35:45;;;;;;;71.75;55.05;;;18.10;52.30;;;;;;5002147;27;90910;-75
2022/01/12 07:38:11;;;;;;;71.97;53.30;;;18.10;52.40;;;;;;5007855;27;90297;-75
2022/01/12 07:40:36;;;;;;;69.30;53.47;;;18.20;52.40;;;;;;4997673;27;96360;-71
2022/01/12 07:43:06;;;;;;;72.22;54.03;;;18.30;52.40;;;;;;5003175;27;89098;-70
2022/01/12 07:45:33;;;;;;;71.88;53.70;;;18.40;52.30;;;;;;4990121;27;91589;-73
2022/01/12 07:47:59;;;;;;;70.18;53.30;;;18.50;52.10;;;;;;5006131;27;92621;-72
2022/01/12 07:50:25;;;;;;;69.68;54.10;;;18.60;52.00;;;;;;4974276;27;95420;-73
2022/01/12 07:52:53;;;;;;;71.35;54.58;;;18.60;51.70;;;;;;4997007;27;90981;-72
2022/01/12 07:55:20;;;;;;;74.78;54.35;;;18.70;52.00;;;;;;4958319;27;93432;-73
2022/01/12 07:57:46;;;;;;;75.63;54.00;;;18.70;52.50;;;;;;5011443;27;90213;-73
2022/01/12 08:00:13;;;;;;;71.80;54.67;;;18.80;52.70;;;;;;5000357;27;90857;-73
2022/01/12 08:02:39;;;;;;;71.60;53.97;;;18.80;52.60;;;;;;4985895;27;90290;-74
2022/01/12 08:05:05;;;;;;;73.00;54.88;;;18.90;52.50;;;;;;4970718;27;92758;-74
2022/01/12 08:07:36;;;;;;;73.65;54.97;;;19.10;52.40;;;;;;4962524;27;90756;-76
2022/01/12 08:10:07;;;;;;;70.88;54.03;;;19.20;52.10;;;;;;4987960;27;90991;-74
2022/01/12 08:12:33;;;;;;;71.65;53.88;;;19.40;51.60;;;;;;4979228;27;90357;-73
2022/01/12 08:14:59;;;;;;;70.40;53.60;;;19.50;51.30;;;;;;4976261;27;91699;-73
2022/01/12 08:17:25;;;;;;;72.90;54.05;;;19.70;51.10;;;;;;4964135;27;92605;-73
2022/01/12 08:19:54;;;;;;;71.93;54.70;;;19.90;51.10;;;;;;4971062;27;89642;-73
2022/01/12 08:22:20;;;;;;;81.13;54.67;;;20.00;50.90;;;;;;4971066;27;90396;-75
2022/01/12 08:24:45;;;;;;;71.82;54.63;;;20.10;50.70;;;;;;4983198;27;89802;-75
2022/01/12 08:27:11;;;;;;;71.53;54.55;;;20.30;50.40;;;;;;4985304;27;91940;-76
2022/01/12 08:29:37;;;;;;;77.28;54.58;;;20.50;50.40;;;;;;5006474;27;90374;-77
2022/01/12 08:32:03;;;;;;;72.95;54.22;;;20.50;50.00;;;;;;4984307;27;89358;-76
2022/01/12 08:34:30;;;;;;;75.72;53.88;;;20.60;50.00;;;;;;4956995;27;95485;-79
2022/01/12 08:36:56;;;;;;;75.78;54.90;;;20.80;49.80;;;;;;4976335;27;91512;-78
2022/01/12 08:39:22;;;;;;;71.22;53.90;;;20.80;49.10;;;;;;4960776;27;92429;-78
2022/01/12 08:41:48;;;;;;;72.13;54.33;;;20.80;49.20;;;;;;4970103;27;90263;-77
2022/01/12 08:44:14;;;;;;;73.35;54.65;;;20.80;48.90;;;;;;4960546;27;91715;-78
2022/01/12 08:46:41;;;;;;;72.35;54.90;;;20.90;48.90;;;;;;4980278;27;91208;-79
2022/01/12 08:49:08;;;;;;;76.20;54.83;;;20.90;48.80;;;;;;4961321;27;90169;-77
2022/01/12 08:51:35;;;;;;;74.05;54.67;;;21.00;48.30;;;;;;4976804;27;90615;-75
2022/01/12 08:54:02;;;;;;;78.30;54.78;;;21.00;48.40;;;;;;4962522;27;91792;-72
2022/01/12 08:56:28;;;;;;;72.43;54.85;;;21.00;48.30;;;;;;4977078;27;91148;-74
2022/01/12 08:58:53;;;;;;;73.32;54.65;;;20.90;48.50;;;;;;4978600;27;91556;-73
2022/01/12 09:01:19;;;;;;;73.80;54.83;;;20.90;48.70;;;;;;4977046;27;89788;-72
2022/01/12 09:03:45;;;;;;;73.18;54.60;;;21.00;48.80;;;;;;4967349;27;92584;-75
2022/01/12 09:06:11;;;;;;;72.72;54.47;;;21.00;48.80;;;;;;4979073;27;90970;-72
2022/01/12 09:08:38;;;;;;;74.53;55.38;;;21.00;48.90;;;;;;4986772;27;91239;-72
2022/01/12 09:11:04;;;;;;;75.32;54.40;;;21.00;49.00;;;;;;4998381;27;90502;-76
2022/01/12 09:13:30;;;;;;;75.80;55.25;;;21.00;49.00;;;;;;4981607;27;89986;-76
2022/01/12 09:16:10;;;;;;;74.15;54.78;;;21.00;49.20;;;;;;4985702;27;94563;-74
2022/01/12 09:18:39;;;;;;;74.05;55.15;;;20.90;49.10;;;;;;4990868;27;91031;-73
2022/01/12 09:21:09;;;;;;;74.13;54.72;;;20.90;49.40;;;;;;4959828;27;94024;-75
2022/01/12 09:23:44;;;;;;;77.15;55.58;;;20.80;49.50;;;;;;4969937;27;94265;-75
2022/01/12 09:26:10;;;;;;;72.72;54.67;;;20.80;49.70;;;;;;4982646;27;90985;-75
2022/01/12 09:28:35;;;;;;;74.07;55.35;;;20.70;49.60;;;;;;4975285;27;94432;-73
2022/01/12 09:31:01;;;;;;;75.10;55.28;;;20.70;49.90;;;;;;4995968;27;90118;-76
2022/01/12 09:33:26;;;;;;;72.82;54.92;;;20.60;49.90;;;;;;4995336;27;93043;-76
2022/01/12 09:35:53;;;;;;;75.15;55.42;;;20.60;49.90;;;;;;5001010;27;91983;-74
2022/01/12 09:38:20;;;;;;;72.28;55.13;;;20.60;49.80;;;;;;4977557;27;89577;-75
2022/01/12 09:40:46;;;;;;;73.70;55.13;;;20.60;50.00;;;;;;4985743;27;91301;-75
2022/01/12 09:43:13;;;;;;;74.38;55.60;;;20.60;50.00;;;;;;4984832;27;90789;-75
2022/01/12 09:45:43;;;;;;;73.35;55.13;;;20.50;50.20;;;;;;4984511;27;89965;-75
2022/01/12 09:48:10;;;;;;;75.85;54.83;;;20.40;50.10;;;;;;4985554;27;91187;-75
2022/01/12 09:50:36;;;;;;;75.18;55.63;;;20.40;50.50;;;;;;4976353;27;90945;-76
2022/01/12 09:53:02;;;;;;;74.25;55.13;;;20.40;50.60;;;;;;4986297;27;92732;-72
2022/01/12 09:55:28;;;;;;;74.63;55.35;;;20.40;50.60;;;;;;4985514;27;91670;-75
2022/01/12 09:57:53;;;;;;;73.80;54.70;;;20.30;50.60;;;;;;4985509;27;90428;-73
2022/01/12 10:00:25;;;;;;;74.78;55.33;;;20.30;50.70;;;;;;4957362;27;90563;-74
2022/01/12 10:02:50;;;;;;;73.30;54.80;;;20.30;50.60;;;;;;4977598;27;91363;-72
2022/01/12 10:05:16;;;;;;;73.38;55.13;;;20.30;50.70;;;;;;4978799;27;91875;-74
2022/01/12 10:07:43;;;;;;;77.90;56.25;;;20.20;50.40;;;;;;4984180;27;92129;-73
2022/01/12 10:10:14;;;;;;;78.15;56.35;;;20.20;50.60;;;;;;4976236;27;89086;-74
2022/01/12 10:12:50;;;;;;;;;;;20.20;50.70;;;;;;4984138;27;90513;-75
2022/01/12 10:15:16;;;;;;;75.47;56.00;;;20.10;50.60;;;;;;4986250;27;91137;-75
2022/01/12 10:17:44;;;;;;;73.35;56.05;;;20.10;50.60;;;;;;4982555;27;92220;-76
2022/01/12 10:20:10;;;;;;;78.90;56.40;;;20.10;50.70;;;;;;4993866;27;90429;-74
2022/01/12 10:22:38;;;;;;;74.82;55.72;;;20.20;50.70;;;;;;4967350;27;92360;-75
2022/01/12 10:25:18;;;;;;;78.95;56.22;;;20.20;50.50;;;;;;4969301;27;96122;-76
2022/01/12 10:27:44;;;;;;;76.65;56.20;;;20.30;50.40;;;;;;4983147;27;89939;-78
2022/01/12 10:30:45;;;;;;;79.47;55.92;;;20.30;49.90;;;;;;4923760;27;93078;-72
2022/01/12 10:33:11;;;;;;;75.20;55.25;;;20.40;49.50;;;;;;4942005;28;91424;-73
2022/01/12 10:35:43;;;;;;;75.65;56.25;;;20.60;49.60;;;;;;4997600;27;89268;-72
2022/01/12 10:38:14;;;;;;;78.70;56.15;;;20.70;49.50;;;;;;4985335;27;89585;-76
2022/01/12 10:41:01;;;;;;;76.85;56.60;;;20.70;49.60;;;;;;4991999;27;91324;-73
2022/01/12 10:43:38;;;;;;;76.43;56.63;;;20.80;49.60;;;;;;4988234;27;93099;-73
2022/01/12 10:46:09;;;;;;;76.10;56.42;;;20.90;49.50;;;;;;4997044;27;93425;-77
2022/01/12 10:48:52;;;;;;;75.97;56.13;;;20.90;49.40;;;;;;4994609;27;89715;-72
2022/01/12 10:51:23;;;;;;;75.05;56.47;;;21.00;49.50;;;;;;4991751;27;90503;-76
2022/01/12 10:53:51;;;;;;;76.70;56.90;;;21.00;49.30;;;;;;4986612;27;91427;-73
2022/01/12 10:56:19;;;;;;;77.28;56.45;;;21.10;48.90;;;;;;4986165;27;92134;-73
2022/01/12 10:58:48;;;;;;;81.30;56.60;;;21.10;48.80;;;;;;5024060;27;89839;-76
2022/01/12 11:01:17;;;;;;;79.53;57.15;;;21.10;48.90;;;;;;5018758;27;90708;-73
2022/01/12 11:03:44;;;;;;;81.13;57.90;;;21.10;48.80;;;;;;5008784;27;90788;-73
2022/01/12 11:06:10;;;;;;;79.05;56.85;;;21.10;48.90;;;;;;5009388;27;89944;-72
2022/01/12 11:08:37;;;;;;;76.43;56.38;;;21.10;48.90;;;;;;4996032;27;91203;-72
2022/01/12 11:11:03;;;;;;;75.93;56.83;;;21.10;48.90;;;;;;4986512;27;91123;-73
2022/01/12 11:13:31;;;;;;;78.50;56.28;;;21.10;48.80;;;;;;4996490;27;90347;-73
2022/01/12 11:15:57;;;;;;;76.53;56.35;;;21.00;49.00;;;;;;4994050;27;90184;-73
2022/01/12 11:18:25;;;;;;;76.78;56.90;;;21.00;49.00;;;;;;4996956;27;89875;-74
2022/01/12 11:20:53;;;;;;;77.30;57.10;;;20.90;49.10;;;;;;4971132;27;90514;-74
2022/01/12 11:23:20;;;;;;;78.20;57.28;;;20.90;49.30;;;;;;4988573;27;91364;-75
2022/01/12 11:25:49;;;;;;;76.32;56.50;;;20.90;49.30;;;;;;5001084;27;90333;-73
2022/01/12 11:28:16;;;;;;;78.97;57.28;;;20.80;49.30;;;;;;4997563;27;95173;-73
2022/01/12 11:30:57;;;;;;;77.78;57.15;;;20.80;49.40;;;;;;5023314;27;89436;-76
2022/01/12 11:33:32;;;;;;;78.25;57.65;;;20.80;49.10;;;;;;4983685;27;91282;-77
2022/01/12 11:36:16;;;;;;;77.97;57.15;;;20.70;49.20;;;;;;4977355;27;90752;-76
2022/01/12 11:38:47;;;;;;;78.30;58.33;;;20.70;49.20;;;;;;4985822;27;91159;-76
2022/01/12 11:41:44;;;;;;;79.68;58.08;;;20.60;49.10;;;;;;4980477;28;90087;-75
2022/01/12 11:44:15;;;;;;;78.60;57.83;;;20.60;49.20;;;;;;4951126;27;91731;-73
2022/01/12 11:46:47;;;;;;;83.07;59.00;;;20.60;49.10;;;;;;4975913;27;90868;-71
2022/01/12 11:49:36;;;;;;;78.60;56.90;;;20.50;49.20;;;;;;4983149;27;89818;-73
2022/01/12 11:52:27;;;;;;;79.57;58.17;;;20.50;49.50;;;;;;4981072;27;89350;-70
2022/01/12 11:55:18;;;;;;;79.70;57.42;;;20.50;49.80;;;;;;4971727;27;92425;-69
2022/01/12 11:58:01;;;;;;;79.60;58.10;;;20.40;49.80;;;;;;4957695;27;89995;-73
2022/01/12 12:00:30;;;;;;;77.97;57.63;;;20.40;49.60;;;;;;4962694;27;93542;-74
2022/01/12 12:02:58;;;;;;;76.03;57.20;;;20.30;49.80;;;;;;4963343;27;91215;-71
2022/01/12 12:05:30;;;;;;;78.68;57.25;;;20.30;49.90;;;;;;4954435;27;90885;-69
2022/01/12 12:08:04;;;;;;;81.47;58.13;;;20.30;50.10;;;;;;4991489;27;91823;-70
2022/01/12 12:10:36;;;;;;;76.82;57.20;;;20.20;50.30;;;;;;4999775;27;89890;-70
2022/01/12 12:13:03;;;;;;;80.00;57.50;;;20.20;50.50;;;;;;4981653;27;90790;-71
2022/01/12 12:15:31;;;;;;;78.13;57.38;;;20.20;50.70;;;;;;4970795;27;90568;-71
2022/01/12 12:18:00;;;;;;;80.10;57.03;;;20.20;50.70;;;;;;4978360;27;91118;-70
2022/01/12 12:20:27;;;;;;;77.47;56.88;;;20.10;50.80;;;;;;4988049;27;92928;-71
2022/01/12 12:23:01;;;;;;;79.40;57.83;;;20.10;50.80;;;;;;5004332;27;91444;-72
2022/01/12 12:25:38;;;;;;;75.63;56.58;;;20.10;50.70;;;;;;5001860;27;91296;-72
2022/01/12 12:28:06;;;;;;;79.88;56.88;;;20.10;51.10;;;;;;4999770;27;92481;-72
2022/01/12 12:30:34;;;;;;;78.28;56.55;;;20.10;51.10;;;;;;4993086;27;90965;-72
2022/01/12 12:33:08;;;;;;;76.53;56.83;;;20.00;51.20;;;;;;4979429;27;90995;-72
2022/01/12 12:35:35;;;;;;;76.55;56.80;;;20.10;51.20;;;;;;4990875;27;90552;-72
2022/01/12 12:38:07;;;;;;;78.75;56.72;;;20.00;51.20;;;;;;4978351;27;90811;-73
2022/01/12 12:40:36;;;;;;;80.30;57.30;;;20.00;51.20;;;;;;4984117;27;91860;-73
2022/01/12 12:43:21;;;;;;;76.53;57.15;;;20.00;51.30;;;;;;5000327;27;90199;-74
2022/01/12 12:45:48;;;;;;;75.82;56.35;;;20.00;51.00;;;;;;4968122;27;90800;-72
2022/01/12 12:48:18;;;;;;;76.25;56.97;;;19.90;51.30;;;;;;4975070;27;99436;-73
2022/01/12 12:50:45;;;;;;;77.40;56.53;;;19.90;51.40;;;;;;4987057;27;91874;-73
2022/01/12 12:53:11;;;;;;;76.10;56.65;;;19.90;51.40;;;;;;4987624;27;91211;-71
2022/01/12 12:55:39;;;;;;;77.53;56.25;;;19.90;51.80;;;;;;4968464;27;91356;-74
2022/01/12 12:58:06;;;;;;;75.85;56.17;;;19.80;51.90;;;;;;4987866;27;90814;-72
2022/01/12 13:00:33;;;;;;;75.47;56.00;;;19.90;51.80;;;;;;5005526;27;90113;-72
2022/01/12 13:03:00;;;;;;;76.35;56.70;;;19.90;51.90;;;;;;4992589;27;94159;-72
2022/01/12 13:05:30;;;;;;;72.90;55.28;;;19.80;52.00;;;;;;5003321;27;91127;-71
2022/01/12 13:07:56;;;;;;;74.35;55.45;;;19.80;52.10;;;;;;5002449;27;88992;-72
2022/01/12 13:10:24;;;;;;;76.78;56.28;;;19.80;52.30;;;;;;5004245;27;89644;-72
2022/01/12 13:12:53;;;;;;;75.63;56.63;;;19.70;52.20;;;;;;4997439;27;94750;-73
2022/01/12 13:15:23;;;;;;;81.45;55.67;;;19.70;52.40;;;;;;4997468;27;97217;-74
2022/01/12 13:18:00;;;;;;;78.05;56.95;;;19.70;52.70;;;;;;4971744;27;91999;-72
2022/01/12 13:23:03;;;;;;;76.15;56.10;;;19.70;52.70;;;;;;5004042;27;89976;-72
2022/01/12 13:25:29;;;;;;;77.68;56.33;;;19.70;52.40;;;;;;4988479;27;91008;-72
2022/01/12 13:27:56;;;;;;;75.80;55.92;;;19.70;52.10;;;;;;4992353;27;91108;-75
2022/01/12 13:30:25;;;;;;;81.05;56.53;;;19.70;52.30;;;;;;4948661;28;89754;-73
2022/01/12 13:32:55;;;;;;;78.97;57.13;;;19.70;52.10;;;;;;4950594;28;91627;-72
2022/01/12 13:35:34;;;;;;;79.63;57.15;;;19.60;52.10;;;;;;4972988;28;90901;-72
2022/01/12 13:38:16;;;;;;;;;;;;;;;;;;;;;
2022/01/12 13:40:42;;;;;;;75.28;55.90;;;19.60;52.00;;;;;;4987187;28;112711;-78
2022/01/12 13:43:09;;;;;;;76.53;56.38;;;19.60;51.70;;;;;;4971985;28;91514;-72
2022/01/12 13:45:42;;;;;;;74.55;55.83;;;19.60;51.60;;;;;;4935946;28;91085;-73
2022/01/12 13:48:14;;;;;;;75.82;55.55;;;19.60;51.70;;;;;;4964363;28;90910;-74
2022/01/12 13:51:02;;;;;;;;;;;19.60;52.00;;;;;;4939547;28;90280;-74
2022/01/12 13:53:37;;;;;;;75.57;56.47;;;19.50;52.10;;;;;;4948577;28;94967;-76